Data for 06/30/2010

Time Sea-Level Adjusted Pressure Absolute Pressure Temperature Relative Humidity Dew Point   
(mb) (inHg) (mb) (inHg) (C) (F) (%) (C) (F)
00:05 1016 30 845 24.95 19.8 67.6 47 8.3 47
00:10 1016 30 845 24.95 19.6 67.3 47 8.2 46.8
00:15 1016 30 845 24.95 19.8 67.7 46 8.1 46.6
00:20 1016 30 845 24.95 19.8 67.7 45 7.8 46
00:25 1016 30 845 24.95 20.1 68.1 42 6.8 44.3
00:30 1016 30 845 24.95 20.5 68.9 42 7.2 45
00:35 1016 30 845 24.95 20.5 68.8 40 6.6 43.9
00:40 1016 30 845 24.95 21.1 70 37 6.1 42.9
00:45 1016 30 845 24.95 21.9 71.4 33 5.1 41.2
00:50 1016 30 845 24.95 22.1 71.8 34 5.8 42.5
00:55 1016 30 845 24.95 22.1 71.7 34 5.6 42.1
01:00 1016 30 845 24.95 22.1 71.8 35 6 42.7
01:05 1016 30 845 24.95 22 71.6 35 6.1 43
01:10 1016 30 845 24.95 21.9 71.4 35 5.8 42.5
01:15 1016 30 845 24.95 21.7 71 35 5.7 42.3
01:20 1016 30 845 24.95 21.8 71.2 37 6.5 43.7
01:25 1016 30 845 24.95 21.4 70.5 37 6.3 43.3
01:30 1016 30 845 24.95 21.3 70.4 36 5.8 42.5
01:35 1016 30 845 24.95 21.6 71 34 5.3 41.5
01:40 1016 30 845 24.95 22 71.6 34 5.5 41.8
01:45 1016 30 845 24.95 22.2 71.9 34 5.6 42.1
01:50 1016 30 845 24.95 22.2 72 33 5.5 42
01:55 1016 30 845 24.95 22.2 72 34 5.7 42.2
02:00 1016 30 845 24.95 22 71.6 33 5.2 41.4
02:05 1016 30 845 24.95 22.1 71.8 35 6 42.8
02:10 1016 30 845 24.95 21.8 71.2 36 6.3 43.3
02:15 1016 30 845 24.95 21.8 71.2 35 5.9 42.5
02:20 1016 30 845 24.95 21.7 71 36 6.1 42.9
02:25 1016 30 845 24.95 21.5 70.7 38 6.8 44.3
02:30 1016 30 845 24.95 21.5 70.7 37 6.4 43.5
02:35 1016 30 845 24.95 21.4 70.6 36 6 42.9
02:40 1016 30 845 24.95 21.5 70.8 36 6.2 43.1
02:45 1016 30 845 24.95 21.4 70.6 37 6.3 43.4
02:50 1016 30 845 24.95 21.2 70.2 38 6.5 43.7
02:55 1016 30 845 24.95 21.1 69.9 38 6.4 43.5
03:00 1016 30 845 24.95 21 69.8 38 6.2 43.1
03:05 1016 30 845 24.95 21.1 69.9 39 6.8 44.2
03:10 1016 30 845 24.95 21 69.8 39 6.7 44.1
03:15 1016 30 846 24.98 20.6 69.2 44 8.2 46.8
03:20 1016 30 846 24.98 20 67.9 46 8.1 46.6
03:25 1016 30 846 24.98 19.8 67.7 46 8.1 46.6
03:30 1017 30.03 846 24.98 19.6 67.2 48 8.4 47.1
03:35 1017 30.03 846 24.98 19.3 66.7 50 8.8 47.9
03:40 1017 30.03 846 24.98 18.8 65.9 53 9.1 48.4
03:45 1017 30.03 846 24.98 18.3 64.9 58 9.9 49.8
03:50 1017 30.03 846 24.98 17.7 63.8 58 9.5 49.1
03:55 1017 30.03 846 24.98 17.4 63.4 59 9.5 49
04:00 1017 30.03 846 24.98 17.3 63.1 60 9.5 49
04:05 1017 30.03 846 24.98 17.1 62.8 61 9.5 49.2
04:10 1017 30.03 846 24.98 17 62.5 62 9.8 49.7
04:15 1017 30.03 846 24.98 16.8 62.2 64 9.9 49.9
04:20 1017 30.03 846 24.98 16.4 61.6 63 9.3 48.8
04:25 1017 30.03 846 24.98 16.6 61.8 64 9.9 49.8
04:30 1017 30.03 846 24.98 16.6 61.9 62 9.3 48.7
04:35 1017 30.03 846 24.98 16.5 61.8 63 9.4 49
04:40 1017 30.03 846 24.98 16.7 62 61 9.2 48.5
04:45 1016 30 846 24.98 16.8 62.2 58 8.7 47.6
04:50 1016 30 846 24.98 16.7 62.1 60 9.1 48.3
04:55 1017 30.03 846 24.98 16.4 61.6 62 9.2 48.5
05:00 1017 30.03 846 24.98 16 60.7 64 9.3 48.8
05:05 1016 30 846 24.98 15.8 60.4 66 9.5 49.1
05:10 1017 30.03 846 24.98 15.8 60.4 64 9 48.2
05:15 1017 30.03 846 24.98 15.7 60.2 64 8.9 48
05:20 1017 30.03 846 24.98 15.5 59.9 65 9 48.2
05:25 1017 30.03 846 24.98 15.7 60.3 64 8.9 48.1
05:30 1017 30.03 846 24.98 15.7 60.2 64 9 48.3
05:35 1017 30.03 846 24.98 15.6 60.1 66 9.3 48.7
05:40 1017 30.03 846 24.98 15.2 59.4 68 9.4 48.9
05:45 1017 30.03 846 24.98 15.1 59.1 66 8.9 48.1
05:50 1017 30.03 846 24.98 15 59 69 9.5 49.1
05:55 1017 30.03 846 24.98 15.1 59.2 70 9.7 49.4
06:00 1017 30.03 846 24.98 15 59 69 9.3 48.8
06:05 1017 30.03 846 24.98 14.6 58.4 69 9.1 48.4
06:10 1018 30.06 847 25.01 14.9 58.9 67 8.9 48.1
06:15 1018 30.06 847 25.01 15.5 59.8 62 8.2 46.7
06:20 1017 30.03 847 25.01 16.5 61.6 61 9 48.2
06:25 1017 30.03 847 25.01 16.2 61.2 66 9.9 49.8
06:30 1017 30.03 846 24.98 15.3 59.5 66 9 48.2
06:35 1017 30.03 846 24.98 15.3 59.5 66 9 48.1
06:40 1017 30.03 846 24.98 15.3 59.6 63 8.4 47.1
06:45 1017 30.03 846 24.98 15.9 60.6 62 8.7 47.6
06:50 1016 30 846 24.98 16.2 61.2 60 8.5 47.3
06:55 1016 30 846 24.98 16.3 61.4 60 8.7 47.7
07:00 1016 30 846 24.98 16.7 62 55 7.7 45.8
07:05 1017 30.03 846 24.98 17.3 63.1 54 8 46.4
07:10 1017 30.03 846 24.98 17.2 62.9 54 7.9 46.3
07:15 1017 30.03 846 24.98 17.5 63.4 52 7.7 45.9
07:20 1017 30.03 846 24.98 17.5 63.5 54 8.1 46.6
07:25 1017 30.03 846 24.98 17.5 63.4 51 7.2 45
07:30 1017 30.03 846 24.98 17.8 64.1 50 7.5 45.5
07:35 1017 30.03 846 24.98 17.9 64.2 51 7.7 45.9
07:40 1017 30.03 846 24.98 18.3 64.9 48 7.3 45.1
07:45 1017 30.03 846 24.98 18.8 65.8 50 8.2 46.7
07:50 1017 30.03 846 24.98 18.9 66 56 10.1 50.1
07:55 1018 30.06 847 25.01 18.3 65 61 10.8 51.5
08:00 1018 30.06 847 25.01 17.4 63.3 63 10.4 50.8
08:05 1018 30.06 848 25.04 16.8 62.3 66 10.4 50.8
08:10 1019 30.09 848 25.04 16 60.8 69 10.3 50.6
08:15 1019 30.09 848 25.04 15 59 73 10.3 50.5
08:20 1019 30.09 848 25.04 14.5 58 76 10.4 50.7
08:25 1019 30.09 848 25.04 14.5 58.1 78 10.7 51.3
08:30 1019 30.09 849 25.07 14.9 58.8 77 11 51.7
08:35 1020 30.12 849 25.07 14.9 58.9 77 11 51.8
08:40 1020 30.12 849 25.07 14.6 58.3 77 10.7 51.3
08:45 1020 30.12 849 25.07 14.5 58.1 77 10.5 50.9
08:50 1020 30.12 849 25.07 14.2 57.6 77 10.3 50.6
08:55 1020 30.12 849 25.07 14 57.2 79 10.5 50.9
09:00 1020 30.12 849 25.07 13.9 57.1 80 10.5 50.9
09:05 1020 30.12 849 25.07 14.1 57.3 78 10.4 50.6
09:10 1020 30.12 849 25.07 14.1 57.3 78 10.4 50.7
09:15 1020 30.12 849 25.07 14.1 57.4 77 10.2 50.4
09:20 1020 30.12 849 25.07 14.3 57.8 77 10.3 50.6
09:25 1019 30.09 849 25.07 14.2 57.6 76 10.1 50.2
09:30 1019 30.09 848 25.04 14.1 57.4 79 10.7 51.2
09:35 1019 30.09 848 25.04 14.2 57.5 78 10.4 50.7
09:40 1019 30.09 848 25.04 14.3 57.8 76 10.3 50.5
09:45 1019 30.09 848 25.04 14.8 58.6 74 10.2 50.4
09:50 1019 30.09 849 25.07 15 59.1 73 10.4 50.7
09:55 1019 30.09 848 25.04 15.4 59.8 71 10.3 50.5
10:00 1019 30.09 849 25.07 16.3 61.4 65 9.8 49.7
10:05 1019 30.09 848 25.04 16.9 62.4 66 10.5 51
10:10 1019 30.09 848 25.04 16.7 62.1 69 11.1 52
10:15 1019 30.09 848 25.04 16.3 61.4 70 10.8 51.5
10:20 1019 30.09 848 25.04 15.9 60.6 70 10.5 50.9
10:25 1019 30.09 848 25.04 15.9 60.6 69 10.2 50.3
10:30 1019 30.09 848 25.04 16.3 61.4 64 9.6 49.3
10:35 1018 30.06 848 25.04 17 62.6 62 9.8 49.7
10:40 1018 30.06 847 25.01 17.6 63.7 60 9.9 49.8
10:45 1018 30.06 847 25.01 17.8 64.1 61 10.4 50.7
10:50 1018 30.06 847 25.01 17.9 64.3 62 10.6 51.1
10:55 1018 30.06 847 25.01 18.6 65.5 58 10.2 50.3
11:00 1018 30.06 847 25.01 19.1 66.5 55 9.9 49.9
11:05 1018 30.06 847 25.01 19.6 67.3 53 9.8 49.7
11:10 1018 30.06 847 25.01 19.9 67.7 54 10.5 50.9
11:15 1018 30.06 847 25.01 20 68 58 11.6 52.9
11:20 1018 30.06 847 25.01 20.3 68.5 54 10.8 51.4
11:25 1018 30.06 847 25.01 20.6 69.1 53 10.7 51.3
11:30 1018 30.06 847 25.01 20.7 69.3 50 9.9 49.9
11:35 1017 30.03 847 25.01 21.4 70.5 51 11 51.7
11:40 1017 30.03 847 25.01 21.6 70.8 49 10.5 51
11:45 1017 30.03 847 25.01 21.9 71.3 48 10.5 50.9
11:50 1017 30.03 847 25.01 21.7 71.1 47 10.2 50.3
11:55 1017 30.03 847 25.01 21.7 71.1 47 10 50
12:00 1017 30.03 846 24.98 22.1 71.8 46 10.1 50.1
12:05 1017 30.03 846 24.98 22.4 72.3 45 10.2 50.3
12:10 1017 30.03 846 24.98 22.5 72.5 46 10.5 51
12:15 1017 30.03 846 24.98 22.5 72.4 45 10 50.1
12:20 1017 30.03 846 24.98 22.6 72.7 45 10.2 50.3
12:25 1017 30.03 846 24.98 22.6 72.7 45 10.1 50.2
12:30 1017 30.03 846 24.98 22.9 73.3 43 10 50
12:35 1017 30.03 846 24.98 23.3 74 40 9.2 48.6
12:40 1017 30.03 846 24.98 23.7 74.6 40 9.5 49.1
12:45 1017 30.03 846 24.98 24.1 75.4 40 9.9 49.9
12:50 1017 30.03 846 24.98 24.2 75.5 41 10.2 50.4
12:55 1017 30.03 846 24.98 24.2 75.6 37 8.7 47.7
13:00 1017 30.03 846 24.98 24.5 76.1 40 10.1 50.2
13:05 1017 30.03 846 24.98 24.6 76.3 38 9.6 49.3
13:10 1017 30.03 846 24.98 24.9 76.9 41 10.9 51.7
13:15 1017 30.03 846 24.98 24.9 76.8 36 9.2 48.6
13:20 1017 30.03 846 24.98 25 76.9 34 8.1 46.6
13:25 1017 30.03 846 24.98 24.6 76.3 34 8 46.4
13:30 1017 30.03 846 24.98 24.7 76.5 30 6.4 43.5
13:35 1017 30.03 846 24.98 24 75.2 34 7.5 45.5
13:40 1016 30 846 24.98 24.6 76.4 29 5.7 42.2
13:45 1016 30 846 24.98 25 77 28 5.6 42.2
13:50 1016 30 845 24.95 25.7 78.2 29 6.7 44.1
13:55 1016 30 845 24.95 25.7 78.3 29 6.4 43.6
14:00 1016 30 845 24.95 25 77.1 31 6.8 44.2
14:05 1016 30 845 24.95 25.4 77.7 31 7.5 45.6
14:10 1016 30 845 24.95 25.1 77.2 31 7.1 44.7
14:15 1016 30 845 24.95 25.4 77.6 30 6.5 43.8
14:20 1016 30 845 24.95 25.6 78.1 29 6.4 43.5
14:25 1015 29.97 845 24.95 26.4 79.6 28 6.5 43.7
14:30 1015 29.97 844 24.92 27.3 81.2 27 7 44.7
14:35 1015 29.97 844 24.92 27.2 80.9 28 7.2 44.9
14:40 1015 29.97 844 24.92 26.2 79.2 28 6.5 43.7
14:45 1015 29.97 844 24.92 26.7 80 25 5.2 41.4
14:50 1015 29.97 845 24.95 27 80.5 27 6.5 43.7
14:55 1015 29.97 844 24.92 27.8 82.1 25 6.2 43.2
15:00 1015 29.97 844 24.92 27.2 81 36 11 51.8
15:05 1015 29.97 844 24.92 25.7 78.2 38 10.6 51.1
15:10 1015 29.97 844 24.92 25.5 77.8 35 9.2 48.6
15:15 1015 29.97 844 24.92 24.7 76.4 40 10.3 50.5
15:20 1015 29.97 844 24.92 23.8 74.9 40 9.5 49
15:25 1015 29.97 844 24.92 22.6 72.7 42 9.3 48.7
15:30 1014 29.94 843 24.89 21.9 71.4 43 9 48.1
15:35 1014 29.94 843 24.89 21.5 70.8 45 9.2 48.6
15:40 1014 29.94 843 24.89 21.4 70.6 45 9.1 48.4
15:45 1014 29.94 843 24.89 21.4 70.6 46 9.4 48.9
15:50 1013 29.91 843 24.89 21.5 70.7 42 8.1 46.6
15:55 1013 29.91 842 24.86 21.9 71.5 40 8.1 46.5
16:00 1013 29.91 842 24.86 22.1 71.7 41 8.5 47.2
16:05 1015 29.97 844 24.92 21.5 70.8 51 11 51.8
16:10 1016 30 845 24.95 18.9 66 67 12.6 54.7
16:15 1015 29.97 845 24.95 15.9 60.7 76 11.7 53.1
16:20 1015 29.97 844 24.92 15.7 60.3 73 11 51.8
16:25 1016 30 845 24.95 16.7 62.1 68 10.9 51.7
16:30 1016 30 846 24.98 17.6 63.6 68 11.7 53.1
16:35 1017 30.03 846 24.98 17.7 63.9 64 10.9 51.7
16:40 1017 30.03 846 24.98 17.8 64 68 11.8 53.2
16:45 1017 30.03 846 24.98 18 64.4 68 12.2 53.9
16:50 1017 30.03 846 24.98 18.3 64.9 67 12.1 53.7
16:55 1017 30.03 847 25.01 18.5 65.2 65 11.9 53.4
17:00 1018 30.06 847 25.01 18.5 65.4 67 12.3 54.2
17:05 1018 30.06 847 25.01 18.6 65.5 65 12.1 53.8
17:10 1018 30.06 847 25.01 18.7 65.6 65 12 53.5
17:15 1018 30.06 847 25.01 18.7 65.6 66 12.3 54.1
17:20 1017 30.03 847 25.01 18.3 65 66 11.9 53.5
17:25 1017 30.03 847 25.01 18.5 65.3 70 12.9 55.3
17:30 1017 30.03 846 24.98 18.1 64.6 68 12.2 54
17:35 1017 30.03 846 24.98 18.1 64.5 67 12 53.6
17:40 1017 30.03 846 24.98 18.6 65.4 62 11.3 52.4
17:45 1017 30.03 847 25.01 18.7 65.6 65 12 53.6
17:50 1017 30.03 846 24.98 18.8 65.8 65 12.2 53.9
17:55 1017 30.03 847 25.01 18.8 65.8 65 12 53.7
18:00 1018 30.06 847 25.01 18.5 65.4 70 13.1 55.6
18:05 1018 30.06 847 25.01 18.2 64.7 70 12.7 54.8
18:10 1018 30.06 847 25.01 17.7 63.9 74 13 55.4
18:15 1018 30.06 847 25.01 17.2 62.9 76 12.9 55.3
18:20 1018 30.06 847 25.01 16.9 62.3 75 12.5 54.4
18:25 1018 30.06 847 25.01 16.8 62.2 77 12.8 55.1
18:30 1018 30.06 847 25.01 16.8 62.2 80 13.3 56
18:35 1018 30.06 847 25.01 16.8 62.3 80 13.4 56.1
18:40 1018 30.06 847 25.01 16.8 62.3 81 13.7 56.6
18:45 1018 30.06 847 25.01 16.4 61.6 84 13.7 56.7
18:50 1018 30.06 847 25.01 16.4 61.5 82 13.4 56
18:55 1018 30.06 847 25.01 16.2 61.2 82 13.2 55.8
19:00 1018 30.06 847 25.01 16 60.8 81 12.8 55.1
19:05 1018 30.06 847 25.01 16 60.8 81 12.8 55.1
19:10 1019 30.09 848 25.04 16.3 61.3 79 12.6 54.6
19:15 1018 30.06 847 25.01 16.2 61.1 82 13.1 55.6
19:20 1018 30.06 847 25.01 16 60.7 83 13.2 55.7
19:25 1018 30.06 847 25.01 15.7 60.3 83 12.8 55
19:30 1018 30.06 847 25.01 15.7 60.2 84 13.1 55.5
19:35 1018 30.06 847 25.01 15.5 60 85 13.1 55.5
19:40 1018 30.06 847 25.01 15.5 59.9 82 12.5 54.5
19:45 1017 30.03 847 25.01 15.8 60.5 79 12.3 54.1
19:50 1017 30.03 846 24.98 16.1 61 78 12.4 54.3
19:55 1017 30.03 846 24.98 16.1 60.9 82 13 55.4
20:00 1017 30.03 846 24.98 15.8 60.5 82 12.8 55
20:05 1017 30.03 846 24.98 15.8 60.4 80 12.4 54.3
20:10 1017 30.03 846 24.98 15.9 60.5 79 12.3 54.1
20:15 1017 30.03 846 24.98 15.9 60.5 81 12.7 54.9
20:20 1017 30.03 846 24.98 15.8 60.5 81 12.6 54.7
20:25 1017 30.03 846 24.98 15.9 60.6 79 12.3 54.1
20:30 1017 30.03 846 24.98 16 60.8 78 12.2 53.9
20:35 1016 30 846 24.98 16 60.8 79 12.4 54.4
20:40 1016 30 846 24.98 15.9 60.7 78 12.2 53.9
20:45 1017 30.03 846 24.98 15.9 60.6 78 12.1 53.8
20:50 1017 30.03 846 24.98 15.8 60.5 78 12.1 53.7
20:55 1017 30.03 846 24.98 15.8 60.5 74 11.3 52.3
21:00 1017 30.03 846 24.98 15.8 60.5 73 11.1 52.1
21:05 1016 30 846 24.98 15.8 60.4 72 10.8 51.5
21:10 1016 30 846 24.98 15.7 60.3 72 10.7 51.3
21:15 1016 30 846 24.98 15.7 60.2 72 10.7 51.3
21:20 1016 30 846 24.98 15.6 60.1 71 10.5 50.8
21:25 1017 30.03 846 24.98 15.6 60.1 70 10.3 50.5
21:30 1017 30.03 846 24.98 15.7 60.3 69 10.1 50.1
21:35 1017 30.03 846 24.98 15.8 60.4 69 10.1 50.3
21:40 1017 30.03 846 24.98 15.9 60.5 67 9.8 49.7
21:45 1017 30.03 846 24.98 15.9 60.7 66 9.8 49.6
21:50 1016 30 846 24.98 16 60.7 66 9.8 49.6
21:55 1016 30 846 24.98 16.1 61 64 9.5 49
22:00 1016 30 845 24.95 16.3 61.3 62 9 48.1
22:05 1016 30 845 24.95 16.4 61.6 61 8.9 48
22:10 1016 30 845 24.95 16.4 61.5 61 9 48.3
22:15 1016 30 845 24.95 16.2 61.1 63 9.3 48.8
22:20 1016 30 845 24.95 15.9 60.6 69 10.2 50.3
22:25 1016 30 845 24.95 15.5 59.8 69 9.8 49.6
22:30 1016 30 845 24.95 15.5 59.8 69 9.8 49.6
22:35 1016 30 845 24.95 15.5 59.9 67 9.6 49.2
22:40 1016 30 846 24.98 15.5 60 68 9.7 49.5
22:45 1016 30 846 24.98 15.5 59.9 68 9.6 49.3
22:50 1016 30 846 24.98 15.5 59.9 68 9.7 49.4
22:55 1016 30 846 24.98 15.3 59.5 71 10.1 50.2
23:00 1017 30.03 846 24.98 15 59.1 72 10 50.1
23:05 1017 30.03 846 24.98 14.9 58.7 71 9.7 49.4
23:10 1017 30.03 846 24.98 14.9 58.8 71 9.7 49.4
23:15 1017 30.03 846 24.98 14.9 58.8 69 9.2 48.6
23:20 1017 30.03 846 24.98 15.3 59.5 65 8.9 48.1
23:25 1017 30.03 846 24.98 15.6 60 65 9.1 48.3
23:30 1017 30.03 846 24.98 15.5 59.9 67 9.6 49.2
23:35 1017 30.03 846 24.98 15.4 59.6 69 9.8 49.6
23:40 1017 30.03 846 24.98 15.4 59.7 67 9.3 48.7
23:45 1017 30.03 846 24.98 15.4 59.8 69 9.9 49.9
23:50 1017 30.03 847 25.01 15.1 59.2 72 10.2 50.4
23:55 1017 30.03 847 25.01 14.8 58.6 74 10.2 50.3
24:00 1018 30.06 847 25.01 14.6 58.3 74 10.1 50.2